Time;durP1;ratioP1;P1;durP2;ratioP2;P2;SDS_P1;SDS_P2;PMS_P1;PMS_P2;Temp;Humidity;BMP_temperature;BMP_pressure;BME280_temperature;BME280_humidity;BME280_pressure;Samples;Min_cycle;Max_cycle;Signal;HPM_P1;HPM_P2
2024/02/07 00:02:09;;;;;;;18.33;6.80;;;;;;;12.03;100.00;100578.50;5281495;27;20028;-75
2024/02/07 00:04:40;;;;;;;20.40;5.78;;;;;;;11.94;100.00;100575.06;5289282;27;20030;-75
2024/02/07 00:07:10;;;;;;;16.25;6.63;;;;;;;12.02;100.00;100566.09;5288958;27;20028;-75
2024/02/07 00:09:41;;;;;;;16.88;6.57;;;;;;;11.95;100.00;100555.25;5278365;27;20023;-75
2024/02/07 00:12:11;;;;;;;22.60;6.60;;;;;;;11.91;100.00;100552.06;5287598;27;20161;-75
2024/02/07 00:14:42;;;;;;;16.52;6.53;;;;;;;11.87;100.00;100558.00;5282294;27;20034;-75
2024/02/07 00:17:12;;;;;;;22.52;7.00;;;;;;;11.83;100.00;100554.00;5286666;27;20080;-75
2024/02/07 00:19:43;;;;;;;19.30;7.03;;;;;;;11.80;100.00;100552.50;5286533;27;20020;-75
2024/02/07 00:22:13;;;;;;;19.35;6.78;;;;;;;11.81;100.00;100550.63;5285710;28;20076;-77
2024/02/07 00:24:44;;;;;;;20.48;7.18;;;;;;;11.84;100.00;100547.59;5286778;28;20053;-76
2024/02/07 00:27:14;;;;;;;17.65;7.30;;;;;;;11.81;100.00;100538.03;5282859;28;20031;-74
2024/02/07 00:29:45;;;;;;;22.83;7.10;;;;;;;11.76;100.00;100540.41;5283774;28;20023;-75
2024/02/07 00:32:16;;;;;;;16.45;6.75;;;;;;;11.81;100.00;100532.66;5286514;28;20079;-75
2024/02/07 00:34:46;;;;;;;20.35;6.47;;;;;;;11.81;100.00;100547.94;5281525;28;20027;-73
2024/02/07 00:37:17;;;;;;;17.02;6.60;;;;;;;11.83;100.00;100529.81;5287042;27;20476;-75
2024/02/07 00:39:47;;;;;;;21.02;7.75;;;;;;;11.80;100.00;100536.34;5281396;28;20032;-75
2024/02/07 00:42:18;;;;;;;27.00;7.97;;;;;;;11.77;100.00;100519.75;5278186;28;20027;-74
2024/02/07 00:44:49;;;;;;;14.38;6.60;;;;;;;11.70;100.00;100530.41;5283008;28;20492;-75
2024/02/07 00:47:19;;;;;;;22.75;7.43;;;;;;;11.75;100.00;100511.88;5276054;27;20029;-75
2024/02/07 00:49:50;;;;;;;22.63;7.47;;;;;;;11.75;100.00;100522.63;5284747;27;20154;-75
2024/02/07 00:52:21;;;;;;;17.50;7.90;;;;;;;11.80;100.00;100535.53;5283665;27;20027;-75
2024/02/07 00:54:51;;;;;;;19.10;8.07;;;;;;;11.71;100.00;100540.13;5290455;27;20429;-75
2024/02/07 00:57:22;;;;;;;26.92;8.57;;;;;;;11.67;100.00;100536.13;5289353;27;20059;-75
2024/02/07 00:59:52;;;;;;;21.38;8.25;;;;;;;11.64;100.00;100540.00;5288680;27;20031;-75
2024/02/07 01:02:23;;;;;;;17.65;6.85;;;;;;;11.69;100.00;100536.78;5284534;27;20027;-75
2024/02/07 01:04:53;;;;;;;27.55;8.13;;;;;;;11.76;100.00;100534.22;5285905;28;20427;-75
2024/02/07 01:07:23;;;;;;;24.13;7.03;;;;;;;11.71;100.00;100517.81;5288342;27;20031;-74
2024/02/07 01:09:54;;;;;;;17.35;7.50;;;;;;;11.76;100.00;100507.34;5286279;27;20016;-75
2024/02/07 01:12:25;;;;;;;19.27;6.68;;;;;;;11.69;100.00;100509.91;5286967;27;20027;-75
2024/02/07 01:14:55;;;;;;;19.75;7.00;;;;;;;11.76;100.00;100496.59;5285168;27;20036;-75
2024/02/07 01:17:26;;;;;;;18.05;7.22;;;;;;;11.72;100.00;100489.91;5292964;27;20034;-75
2024/02/07 01:19:56;;;;;;;22.38;6.90;;;;;;;11.62;100.00;100491.00;5287031;27;20026;-75
2024/02/07 01:22:26;;;;;;;19.55;6.72;;;;;;;11.67;100.00;100490.44;5289034;27;20025;-75
2024/02/07 01:24:57;;;;;;;18.05;6.85;;;;;;;11.65;100.00;100477.22;5285412;27;20668;-75
2024/02/07 01:27:27;;;;;;;15.68;6.22;;;;;;;11.83;100.00;100482.25;5288802;27;20027;-75
2024/02/07 01:29:58;;;;;;;16.33;7.07;;;;;;;11.76;100.00;100464.34;5289722;27;20127;-75
2024/02/07 01:32:28;;;;;;;17.10;6.47;;;;;;;11.72;100.00;100461.19;5270775;28;20089;-75
2024/02/07 01:34:59;;;;;;;19.27;7.07;;;;;;;11.63;100.00;100457.72;5287796;27;20084;-75
2024/02/07 01:37:30;;;;;;;19.80;7.20;;;;;;;11.65;100.00;100453.03;5284892;27;20028;-75
2024/02/07 01:40:00;;;;;;;22.05;7.25;;;;;;;11.66;100.00;100465.44;5286717;27;20389;-75
2024/02/07 01:42:32;;;;;;;20.88;7.15;;;;;;;11.62;100.00;100457.91;5282360;28;20106;-75
2024/02/07 01:45:21;;;;;;;13.18;7.13;;;;;;;11.63;100.00;100454.22;5286982;27;20060;-75
2024/02/07 01:47:51;;;;;;;18.30;7.28;;;;;;;11.66;100.00;100460.06;5287420;27;20055;-75
2024/02/07 01:50:23;;;;;;;19.77;7.03;;;;;;;11.59;100.00;100448.34;5281553;28;20027;-75
2024/02/07 01:52:58;;;;;;;26.05;7.63;;;;;;;11.70;100.00;100449.78;5287871;27;20385;-75
2024/02/07 01:55:28;;;;;;;18.23;7.78;;;;;;;11.60;100.00;100452.72;5287255;27;20062;-75
2024/02/07 01:58:00;;;;;;;16.90;7.75;;;;;;;11.60;100.00;100454.59;5283609;28;20051;-75
2024/02/07 02:00:32;;;;;;;19.38;7.28;;;;;;;11.50;100.00;100449.47;5285881;27;20384;-75
2024/02/07 02:03:03;;;;;;;20.85;7.80;;;;;;;11.57;100.00;100452.25;5284732;27;20408;-75
2024/02/07 02:05:34;;;;;;;17.50;7.03;;;;;;;11.54;100.00;100445.38;5282426;28;20073;-75
2024/02/07 02:08:06;;;;;;;21.75;7.72;;;;;;;11.64;100.00;100466.63;5288428;27;20366;-75
2024/02/07 02:10:37;;;;;;;26.63;6.90;;;;;;;11.65;100.00;100436.91;5281248;28;20444;-75
2024/02/07 02:13:08;;;;;;;18.30;7.22;;;;;;;11.67;100.00;100437.53;5284876;27;20011;-75
2024/02/07 02:15:39;;;;;;;21.15;7.55;;;;;;;11.65;100.00;100431.53;5283708;27;20035;-75
2024/02/07 02:18:09;;;;;;;19.77;6.22;;;;;;;11.63;100.00;100438.91;5284353;27;20111;-75
2024/02/07 02:20:41;;;;;;;16.38;6.70;;;;;;;11.63;100.00;100435.41;5267378;28;20035;-75
2024/02/07 02:23:17;;;;;;;21.33;7.70;;;;;;;11.58;100.00;100427.88;5283490;28;20038;-75
2024/02/07 02:26:08;;;;;;;17.27;6.30;;;;;;;11.63;100.00;100435.41;5283045;28;20026;-75
2024/02/07 02:28:53;;;;;;;16.17;6.28;;;;;;;11.66;100.00;100433.19;5285840;27;20015;-75
2024/02/07 02:31:24;;;;;;;15.27;5.95;;;;;;;11.70;100.00;100422.06;5282192;28;20046;-75
2024/02/07 02:33:56;;;;;;;20.60;7.00;;;;;;;11.53;100.00;100419.53;5282639;27;20504;-75
2024/02/07 02:36:27;;;;;;;15.52;5.45;;;;;;;11.58;100.00;100413.63;5277050;28;20050;-75
2024/02/07 02:38:57;;;;;;;12.75;5.10;;;;;;;11.61;100.00;100413.25;5284839;27;20120;-75
2024/02/07 02:41:28;;;;;;;15.07;5.13;;;;;;;11.68;100.00;100412.31;5284354;28;20022;-75
2024/02/07 02:43:58;;;;;;;9.82;4.60;;;;;;;11.59;100.00;100397.31;5283153;28;20022;-75
2024/02/07 02:46:29;;;;;;;12.68;4.80;;;;;;;11.63;100.00;100390.56;5285755;27;20084;-75
2024/02/07 02:49:00;;;;;;;12.85;4.85;;;;;;;11.67;100.00;100407.97;5277483;27;20032;-75
2024/02/07 02:51:31;;;;;;;14.23;4.97;;;;;;;11.59;100.00;100399.16;5279273;28;20020;-75
2024/02/07 02:54:02;;;;;;;15.98;4.18;;;;;;;11.56;100.00;100378.06;5280896;27;20447;-75
2024/02/07 02:56:34;;;;;;;15.70;5.00;;;;;;;11.54;100.00;100386.28;5269437;28;20030;-75
2024/02/07 02:59:05;;;;;;;16.58;5.10;;;;;;;11.55;100.00;100373.72;5280698;28;20038;-75
2024/02/07 03:01:37;;;;;;;13.10;4.78;;;;;;;11.57;100.00;100375.19;5283003;28;20043;-75
2024/02/07 03:04:12;;;;;;;12.05;4.90;;;;;;;11.48;100.00;100387.03;5285812;27;20039;-75
2024/02/07 03:06:59;;;;;;;12.23;5.68;;;;;;;11.49;100.00;100366.38;5283714;27;20425;-75
2024/02/07 03:09:30;;;;;;;10.98;4.88;;;;;;;11.61;100.00;100362.22;5284097;28;20533;-75
2024/02/07 03:12:01;;;;;;;16.40;5.28;;;;;;;11.60;100.00;100358.69;5281278;27;20188;-75
2024/02/07 03:14:32;;;;;;;12.88;4.30;;;;;;;11.50;100.00;100342.03;5284373;28;20023;-75
2024/02/07 03:17:03;;;;;;;14.00;5.22;;;;;;;11.62;100.00;100366.56;5280919;28;20038;-75
2024/02/07 03:19:35;;;;;;;20.50;5.40;;;;;;;11.60;100.00;100356.00;5280743;28;20055;-76
2024/02/07 03:22:06;;;;;;;13.48;5.13;;;;;;;11.65;100.00;100361.66;5285594;28;20120;-75
2024/02/07 03:24:41;;;;;;;14.85;5.28;;;;;;;11.57;100.00;100347.47;5278773;28;20031;-75
2024/02/07 03:27:12;;;;;;;9.73;5.43;;;;;;;11.58;100.00;100349.16;5289723;27;20043;-75
2024/02/07 03:29:43;;;;;;;16.30;6.15;;;;;;;11.54;100.00;100343.28;5286544;27;20019;-75
2024/02/07 03:32:14;;;;;;;7.85;4.40;;;;;;;11.61;100.00;100329.97;5284415;27;20106;-75
2024/02/07 03:34:51;;;;;;;12.43;4.90;;;;;;;11.57;100.00;100321.44;5281185;27;20510;-78
2024/02/07 03:37:21;;;;;;;13.70;5.10;;;;;;;11.68;100.00;100323.66;5287929;27;20023;-78
2024/02/07 03:39:53;;;;;;;11.20;4.25;;;;;;;11.55;100.00;100311.91;5283498;27;20046;-77
2024/02/07 03:42:23;;;;;;;12.35;4.40;;;;;;;11.49;100.00;100301.91;5283436;28;20085;-77
2024/02/07 03:44:56;;;;;;;7.50;4.25;;;;;;;11.62;100.00;100300.22;5282757;27;20046;-79
2024/02/07 03:47:28;;;;;;;10.65;4.50;;;;;;;11.54;100.00;100299.47;5281895;28;20085;-77
2024/02/07 03:49:58;;;;;;;10.00;4.10;;;;;;;11.54;100.00;100292.25;5281775;27;20084;-77
2024/02/07 03:52:29;;;;;;;7.68;4.30;;;;;;;11.53;100.00;100279.03;5282985;28;20505;-77
2024/02/07 03:55:00;;;;;;;12.57;4.40;;;;;;;11.59;100.00;100281.78;5285883;27;20035;-77
2024/02/07 03:57:30;;;;;;;12.23;4.38;;;;;;;11.57;100.00;100294.59;5282791;27;20468;-77
2024/02/07 04:00:07;;;;;;;13.38;4.53;;;;;;;11.53;100.00;100300.50;5277995;27;20038;-77
2024/02/07 04:02:38;;;;;;;10.75;4.50;;;;;;;11.65;100.00;100307.09;5284509;27;20036;-77
2024/02/07 04:05:10;;;;;;;11.63;4.55;;;;;;;11.75;100.00;100358.72;5281908;27;20050;-79
2024/02/07 04:07:40;;;;;;;7.88;2.85;;;;;;;11.53;100.00;100363.13;5280223;27;20130;-78
2024/02/07 04:10:11;;;;;;;5.05;2.00;;;;;;;10.39;100.00;100374.78;5281907;27;20094;-77
2024/02/07 05:17:35;;;;;;;10.63;2.30;;;;;;;7.10;100.00;100454.78;5282778;28;20067;-77
2024/02/07 05:20:06;;;;;;;5.35;1.95;;;;;;;7.06;100.00;100454.25;5279593;28;20106;-76
2024/02/07 05:22:36;;;;;;;6.80;2.00;;;;;;;7.03;100.00;100462.59;5281437;28;20027;-77
2024/02/07 05:25:08;;;;;;;7.88;2.17;;;;;;;7.12;100.00;100476.81;5274731;28;20393;-77
2024/02/07 05:27:38;;;;;;;3.15;1.67;;;;;;;7.13;100.00;100484.69;5280305;28;20031;-76
2024/02/07 05:30:14;;;;;;;5.97;2.15;;;;;;;6.97;100.00;100460.50;5280816;28;20019;-76
2024/02/07 05:32:45;;;;;;;10.65;1.92;;;;;;;6.92;100.00;100473.44;5270135;27;20485;-76
2024/02/07 05:35:15;;;;;;;11.07;1.65;;;;;;;6.86;100.00;100480.22;5287966;27;20027;-79
2024/02/07 05:37:46;;;;;;;11.85;1.80;;;;;;;6.73;100.00;100463.78;5280230;27;20019;-76
2024/02/07 05:40:16;;;;;;;12.88;1.60;;;;;;;6.62;100.00;100498.63;5283723;27;20090;-78
2024/02/07 05:42:46;;;;;;;7.95;1.40;;;;;;;6.71;100.00;100479.91;5287867;28;20051;-77
2024/02/07 05:45:17;;;;;;;12.48;1.95;;;;;;;6.67;100.00;100489.19;5283607;28;20030;-77
2024/02/07 05:47:47;;;;;;;6.57;1.58;;;;;;;6.67;100.00;100491.03;5283931;28;20035;-76
2024/02/07 05:50:18;;;;;;;10.63;1.98;;;;;;;6.57;100.00;100493.75;5283566;27;20078;-79
2024/02/07 05:52:51;;;;;;;5.80;1.80;;;;;;;6.64;100.00;100491.34;5289903;27;20461;-76
2024/02/07 05:55:22;;;;;;;7.60;1.60;;;;;;;6.54;100.00;100498.56;5284668;27;20035;-76
2024/02/07 05:57:53;;;;;;;9.63;2.53;;;;;;;6.54;100.00;100501.22;5283077;28;20035;-77
2024/02/07 06:00:23;;;;;;;5.95;1.50;;;;;;;6.53;100.00;100495.06;5281693;28;20520;-76
2024/02/07 06:02:54;;;;;;;9.80;1.40;;;;;;;6.54;100.00;100499.38;5281187;28;20031;-75
2024/02/07 06:05:27;;;;;;;8.45;1.40;;;;;;;6.51;100.00;100501.50;5284176;27;20046;-75
2024/02/07 06:07:57;;;;;;;14.68;2.03;;;;;;;6.49;100.00;100507.81;5286500;28;20082;-75
2024/02/07 06:10:29;;;;;;;8.98;1.83;;;;;;;6.57;100.00;100520.38;5285949;27;20498;-74
2024/02/07 06:13:00;;;;;;;11.63;1.95;;;;;;;6.57;100.00;100528.38;5285115;28;20548;-74
2024/02/07 06:15:30;;;;;;;9.88;1.98;;;;;;;6.60;100.00;100527.28;5284981;28;20031;-75
2024/02/07 06:18:01;;;;;;;10.00;1.92;;;;;;;6.60;100.00;100530.78;5281245;27;20397;-75
2024/02/07 06:20:31;;;;;;;5.38;1.98;;;;;;;6.56;100.00;100525.88;5284989;27;20023;-75
2024/02/07 06:23:03;;;;;;;12.07;2.13;;;;;;;6.59;100.00;100536.25;5280663;28;20524;-74
2024/02/07 06:25:33;;;;;;;13.60;2.88;;;;;;;6.67;100.00;100544.34;5288188;27;20031;-74
2024/02/07 06:28:04;;;;;;;11.98;2.90;;;;;;;6.67;100.00;100541.66;5287433;27;20033;-74
2024/02/07 06:30:34;;;;;;;9.27;2.67;;;;;;;6.66;100.00;100551.50;5282990;28;21435;-74
2024/02/07 06:33:05;;;;;;;12.70;2.70;;;;;;;6.71;100.00;100557.22;5280777;28;20035;-74
2024/02/07 06:35:36;;;;;;;7.28;2.35;;;;;;;6.68;100.00;100549.53;5285710;27;20027;-74
2024/02/07 06:38:06;;;;;;;10.13;2.90;;;;;;;6.66;100.00;100556.00;5279233;28;20431;-74
2024/02/07 06:40:37;;;;;;;5.72;2.50;;;;;;;6.58;100.00;100556.75;5282856;27;20023;-74
2024/02/07 06:43:07;;;;;;;12.15;2.75;;;;;;;6.52;100.00;100556.47;5281239;28;20110;-75
2024/02/07 06:45:38;;;;;;;7.28;2.00;;;;;;;6.45;100.00;100565.06;5273496;28;20440;-74
2024/02/07 06:48:09;;;;;;;11.50;2.10;;;;;;;6.54;100.00;100573.19;5289239;27;20439;-74
2024/02/07 06:50:40;;;;;;;7.70;2.20;;;;;;;6.52;100.00;100567.13;5279596;28;20094;-74
2024/02/07 06:53:10;;;;;;;7.35;2.08;;;;;;;6.53;100.00;100577.66;5282599;28;20396;-74
2024/02/07 06:55:41;;;;;;;8.23;1.70;;;;;;;6.49;100.00;100569.13;5280552;27;20026;-74
2024/02/07 06:58:11;;;;;;;5.13;1.10;;;;;;;6.46;100.00;100571.22;5282179;28;20027;-74
2024/02/07 07:00:42;;;;;;;6.38;1.38;;;;;;;6.32;100.00;100569.03;5275358;28;20490;-74
2024/02/07 07:03:13;;;;;;;13.95;1.45;;;;;;;6.30;100.00;100569.19;5282019;28;20088;-74
2024/02/07 07:05:44;;;;;;;16.40;1.65;;;;;;;6.21;100.00;100567.38;5279059;27;20422;-74
2024/02/07 07:08:14;;;;;;;11.00;1.90;;;;;;;6.19;100.00;100548.91;5281099;28;20057;-74
2024/02/07 07:10:45;;;;;;;8.20;1.48;;;;;;;6.14;100.00;100560.97;5279024;28;20087;-74
2024/02/07 07:13:15;;;;;;;11.30;1.48;;;;;;;6.10;100.00;100560.41;5280962;27;20034;-74
2024/02/07 07:15:46;;;;;;;13.57;1.83;;;;;;;6.09;100.00;100561.41;5278274;28;20067;-74
2024/02/07 07:18:16;;;;;;;11.93;1.85;;;;;;;6.10;100.00;100562.25;5278261;28;20020;-74
2024/02/07 07:20:47;;;;;;;10.27;1.80;;;;;;;6.10;100.00;100568.41;5281673;28;20023;-74
2024/02/07 07:23:21;;;;;;;11.00;2.00;;;;;;;6.06;100.00;100569.66;5277632;28;20100;-74
2024/02/07 07:25:51;;;;;;;9.57;1.33;;;;;;;6.04;100.00;100566.31;5281909;28;20024;-74
2024/02/07 07:28:22;;;;;;;5.93;1.30;;;;;;;6.05;100.00;100572.47;5280053;28;20027;-74
2024/02/07 07:30:55;;;;;;;14.68;1.70;;;;;;;6.11;100.00;100577.22;5281997;28;20400;-74
2024/02/07 07:33:25;;;;;;;9.15;1.98;;;;;;;6.16;100.00;100580.31;5283748;27;20545;-74
2024/02/07 07:35:56;;;;;;;8.82;1.30;;;;;;;6.13;100.00;100584.09;5282784;27;20048;-74
2024/02/07 07:38:26;;;;;;;10.80;1.35;;;;;;;6.16;100.00;100582.97;5285619;27;20024;-74
2024/02/07 07:40:57;;;;;;;10.65;1.85;;;;;;;6.20;100.00;100585.19;5286027;27;20058;-74
2024/02/07 07:43:27;;;;;;;10.13;1.90;;;;;;;6.24;100.00;100593.75;5285785;27;20028;-74
2024/02/07 07:45:58;;;;;;;8.90;1.50;;;;;;;6.21;100.00;100594.03;5278994;28;20037;-74
2024/02/07 07:48:28;;;;;;;9.90;2.22;;;;;;;6.22;100.00;100599.22;5286751;27;20024;-74
2024/02/07 07:50:59;;;;;;;11.75;3.20;;;;;;;6.19;100.00;100618.16;5278261;27;20023;-74
2024/02/07 07:53:30;;;;;;;14.13;1.35;;;;;;;6.21;100.00;100602.84;5281797;27;20034;-74
2024/02/07 07:56:00;;;;;;;10.15;1.80;;;;;;;6.25;100.00;100611.41;5278449;27;20080;-74
2024/02/07 07:58:37;;;;;;;14.05;1.92;;;;;;;6.26;100.00;100604.25;5285063;27;20487;-74
2024/02/07 08:01:14;;;;;;;12.75;1.92;;;;;;;6.23;100.00;100610.72;5281153;27;20035;-74
2024/02/07 08:03:44;;;;;;;11.80;2.40;;;;;;;6.28;100.00;100612.97;5280160;27;20023;-74
2024/02/07 08:06:16;;;;;;;8.88;1.92;;;;;;;6.21;100.00;100618.84;5287522;27;20027;-74
2024/02/07 08:08:47;;;;;;;13.57;2.15;;;;;;;6.31;100.00;100613.50;5283441;27;20011;-74
2024/02/07 08:11:17;;;;;;;18.77;2.55;;;;;;;6.36;100.00;100626.38;5282712;27;20028;-74
2024/02/07 08:13:48;;;;;;;22.85;2.58;;;;;;;6.42;100.00;100626.63;5279808;28;20032;-74
2024/02/07 08:16:18;;;;;;;12.32;2.13;;;;;;;6.47;100.00;100624.38;5278841;27;20505;-74
2024/02/07 08:18:49;;;;;;;11.55;2.45;;;;;;;6.49;100.00;100634.91;5280091;27;20019;-74
2024/02/07 08:21:19;;;;;;;14.50;2.60;;;;;;;6.51;100.00;100632.09;5283095;28;20142;-74
2024/02/07 08:23:50;;;;;;;11.07;2.40;;;;;;;6.53;100.00;100640.78;5280655;27;20026;-74
2024/02/07 08:26:21;;;;;;;6.47;2.25;;;;;;;6.50;100.00;100641.91;5280970;27;20048;-74
2024/02/07 08:28:52;;;;;;;17.42;2.72;;;;;;;6.52;100.00;100645.25;5282114;27;20068;-74
2024/02/07 08:31:22;;;;;;;14.25;2.45;;;;;;;6.60;100.00;100640.06;5278775;27;20027;-74
2024/02/07 08:33:53;;;;;;;22.35;2.47;;;;;;;6.62;100.00;100624.75;5271497;28;20545;-74
2024/02/07 08:36:23;;;;;;;14.10;2.70;;;;;;;6.66;100.00;100627.97;5277695;28;20023;-74
2024/02/07 08:38:54;;;;;;;14.57;2.45;;;;;;;6.61;100.00;100627.56;5284370;27;20016;-74
2024/02/07 08:41:25;;;;;;;11.13;2.67;;;;;;;6.55;100.00;100621.00;5276867;28;20028;-74
2024/02/07 08:43:56;;;;;;;15.52;2.88;;;;;;;6.46;100.00;100616.53;5277253;28;20030;-74
2024/02/07 08:46:26;;;;;;;12.75;3.63;;;;;;;6.51;100.00;100622.25;5280979;28;20039;-74
2024/02/07 08:48:57;;;;;;;10.90;2.63;;;;;;;6.54;100.00;100619.31;5282785;27;20050;-74
2024/02/07 08:51:27;;;;;;;13.15;2.53;;;;;;;6.52;100.00;100625.75;5279185;28;20034;-74
2024/02/07 08:53:58;;;;;;;21.17;2.92;;;;;;;6.54;100.00;100626.47;5282065;28;20024;-74
2024/02/07 08:56:29;;;;;;;12.50;2.70;;;;;;;6.56;100.00;100628.00;5280170;28;20109;-74
2024/02/07 08:58:59;;;;;;;11.68;2.90;;;;;;;6.59;100.00;100632.22;5279127;28;20472;-74
2024/02/07 09:01:30;;;;;;;18.83;2.80;;;;;;;6.57;100.00;100639.50;5281143;28;20102;-74
2024/02/07 09:04:01;;;;;;;15.57;3.10;;;;;;;6.57;100.00;100632.34;5277222;28;20035;-74
2024/02/07 09:06:31;;;;;;;22.92;3.92;;;;;;;6.58;100.00;100636.72;5277896;28;20488;-74
2024/02/07 09:09:02;;;;;;;14.55;3.65;;;;;;;6.54;100.00;100634.47;5286104;27;20101;-74
2024/02/07 09:11:32;;;;;;;14.60;4.63;;;;;;;6.52;100.00;100629.28;5283332;27;20530;-74
2024/02/07 09:14:03;;;;;;;12.75;3.13;;;;;;;6.52;100.00;100637.25;5279846;27;20111;-74
2024/02/07 09:16:33;;;;;;;17.15;3.67;;;;;;;6.54;100.00;100645.13;5282521;27;20031;-74
2024/02/07 09:19:04;;;;;;;13.73;3.80;;;;;;;6.53;100.00;100652.28;5284809;27;20028;-74
2024/02/07 09:21:34;;;;;;;21.20;3.97;;;;;;;6.51;100.00;100656.91;5283340;27;20102;-74
2024/02/07 09:24:06;;;;;;;12.07;4.03;;;;;;;6.59;100.00;100667.69;5281128;27;20024;-74
2024/02/07 09:26:37;;;;;;;16.30;4.85;;;;;;;6.69;100.00;100673.84;5278426;27;20031;-74
2024/02/07 09:29:08;;;;;;;14.65;5.22;;;;;;;6.72;100.00;100678.03;5282890;27;20023;-74
2024/02/07 09:31:38;;;;;;;18.55;4.93;;;;;;;6.74;100.00;100676.06;5282737;27;20079;-74
2024/02/07 09:34:09;;;;;;;19.58;4.95;;;;;;;6.71;100.00;100674.53;5285260;27;20019;-74
2024/02/07 09:36:40;;;;;;;16.67;4.88;;;;;;;6.75;100.00;100673.25;5277448;27;20033;-74
2024/02/07 09:39:11;;;;;;;17.13;5.57;;;;;;;6.75;100.00;100677.75;5283254;28;20035;-74
2024/02/07 09:41:44;;;;;;;20.52;5.35;;;;;;;6.72;100.00;100672.69;5278230;27;20035;-74
2024/02/07 09:44:16;;;;;;;16.45;4.95;;;;;;;6.72;100.00;100675.38;5276901;28;20401;-74
2024/02/07 09:46:53;;;;;;;15.68;4.30;;;;;;;6.67;100.00;100685.63;5277788;28;20027;-74
2024/02/07 09:49:25;;;;;;;16.45;4.15;;;;;;;6.66;100.00;100678.63;5279939;27;20035;-74
2024/02/07 09:51:56;;;;;;;23.88;5.97;;;;;;;6.60;100.00;100687.19;5284514;27;20027;-74
2024/02/07 09:54:27;;;;;;;20.13;4.55;;;;;;;6.63;100.00;100693.09;5289411;27;20042;-74
2024/02/07 09:56:58;;;;;;;20.42;4.10;;;;;;;6.62;100.00;100693.22;5282887;28;20385;-74
2024/02/07 09:59:30;;;;;;;20.45;4.32;;;;;;;6.62;100.00;100691.38;5285854;27;20027;-74
2024/02/07 10:02:03;;;;;;;12.63;3.80;;;;;;;6.57;100.00;100690.97;5279500;28;20115;-74
2024/02/07 10:04:38;;;;;;;20.25;4.03;;;;;;;6.56;100.00;100694.63;5281811;27;20027;-74
2024/02/07 10:07:11;;;;;;;17.17;3.70;;;;;;;6.55;100.00;100684.13;5280221;28;20107;-74
2024/02/07 10:09:43;;;;;;;20.17;3.65;;;;;;;6.48;100.00;100687.38;5277692;27;20028;-74
2024/02/07 10:12:15;;;;;;;20.33;3.97;;;;;;;6.46;100.00;100696.47;5279906;27;20494;-74
2024/02/07 10:14:48;;;;;;;15.85;3.65;;;;;;;6.42;100.00;100701.25;5278639;28;20062;-74
2024/02/07 10:17:18;;;;;;;9.52;2.60;;;;;;;6.32;100.00;100703.09;5282960;27;20020;-74
2024/02/07 10:19:49;;;;;;;26.13;8.18;;;;;;;6.26;100.00;100692.16;5280883;27;20019;-74
2024/02/07 10:22:20;;;;;;;10.80;4.15;;;;;;;6.12;100.00;100678.28;5281593;28;20031;-74
2024/02/07 10:24:51;;;;;;;12.45;3.20;;;;;;;6.27;100.00;100686.69;5279821;27;20489;-74
2024/02/07 10:27:22;;;;;;;14.88;4.32;;;;;;;6.28;100.00;100677.72;5282588;28;20061;-74
2024/02/07 10:30:02;;;;;;;168.00;70.75;;;;;;;6.27;100.00;100675.19;5276291;28;20031;-74
2024/02/07 10:32:33;;;;;;;20.80;5.63;;;;;;;6.30;100.00;100685.56;5272765;27;20040;-74
2024/02/07 10:35:10;;;;;;;10.07;2.40;;;;;;;6.30;100.00;100685.56;5282528;28;20495;-76
2024/02/07 10:37:42;;;;;;;22.40;6.93;;;;;;;6.27;100.00;100691.19;5279010;28;20042;-76
2024/02/07 10:40:12;;;;;;;18.02;7.93;;;;;;;6.20;100.00;100697.06;5282104;27;20095;-76
2024/02/07 10:42:43;;;;;;;16.85;7.00;;;;;;;6.19;100.00;100699.91;5277707;28;20019;-76
2024/02/07 10:45:13;;;;;;;8.48;1.92;;;;;;;6.15;100.00;100695.81;5280144;27;20024;-76
2024/02/07 10:47:44;;;;;;;13.95;2.72;;;;;;;6.16;100.00;100685.03;5280923;27;20028;-78
2024/02/07 10:50:16;;;;;;;10.45;1.98;;;;;;;6.07;100.00;100690.34;5276298;28;20031;-79
2024/02/07 10:52:49;;;;;;;9.05;2.10;;;;;;;6.05;100.00;100681.66;5275776;27;20047;-76
2024/02/07 10:55:21;;;;;;;8.95;3.22;;;;;;;6.04;100.00;100675.50;5281736;28;20028;-76
2024/02/07 10:57:56;;;;;;;13.48;3.08;;;;;;;5.93;100.00;100673.00;5278961;28;20031;-79
2024/02/07 11:00:27;;;;;;;13.07;2.72;;;;;;;5.86;100.00;100672.66;5279520;28;20392;-77
2024/02/07 11:03:00;;;;;;;13.35;2.65;;;;;;;5.76;100.00;100670.97;5268870;27;20020;-78
2024/02/07 11:05:31;;;;;;;14.98;2.63;;;;;;;5.83;100.00;100669.47;5279578;28;20099;-81
2024/02/07 11:08:01;;;;;;;11.75;2.65;;;;;;;5.87;100.00;100668.19;5284076;27;20107;-77
2024/02/07 11:10:33;;;;;;;12.88;4.10;;;;;;;5.73;100.00;100653.50;5280072;28;20291;-77
2024/02/07 11:13:04;;;;;;;10.27;2.42;;;;;;;5.70;100.00;100651.09;5276267;28;20049;-77
2024/02/07 11:15:35;;;;;;;13.65;2.70;;;;;;;5.66;100.00;100649.69;5277281;28;20474;-76
2024/02/07 11:18:08;;;;;;;14.10;2.58;;;;;;;5.76;100.00;100639.88;5280306;27;20024;-76
2024/02/07 11:20:40;;;;;;;18.15;3.00;;;;;;;5.89;100.00;100629.78;5280389;27;20102;-78
2024/02/07 11:23:23;;;;;;;11.68;2.65;;;;;;;6.02;100.00;100628.69;5271828;28;20023;-78
2024/02/07 11:25:54;;;;;;;11.68;2.70;;;;;;;6.13;100.00;100631.22;5279870;28;20044;-76
2024/02/07 11:28:25;;;;;;;12.18;3.15;;;;;;;6.10;100.00;100620.84;5276884;28;20047;-79
2024/02/07 11:30:58;;;;;;;11.15;3.08;;;;;;;6.19;100.00;100599.50;5278185;28;20027;-76
2024/02/07 11:33:33;;;;;;;14.30;3.30;;;;;;;6.27;100.00;100595.28;5278116;28;20481;-77
2024/02/07 11:36:17;;;;;;;14.68;4.00;;;;;;;6.26;100.00;100598.91;5274585;28;20435;-76
2024/02/07 11:38:54;;;;;;;14.13;4.55;;;;;;;6.16;100.00;100596.28;5278584;28;20023;-76
2024/02/07 11:41:27;;;;;;;19.00;2.97;;;;;;;5.92;100.00;100605.59;5273506;28;20059;-76
2024/02/07 11:44:11;;;;;;;6.07;1.45;;;;;;;6.03;100.00;100603.75;5273313;28;20110;-76
2024/02/07 11:46:50;;;;;;;11.65;1.80;;;;;;;6.11;100.00;100603.88;5280875;27;20035;-76
2024/02/07 11:49:28;;;;;;;7.43;1.88;;;;;;;6.13;100.00;100593.94;5275917;27;20020;-75
2024/02/07 11:52:00;;;;;;;12.85;2.08;;;;;;;6.11;100.00;100588.72;5280767;28;20041;-76
2024/02/07 11:54:32;;;;;;;11.85;2.15;;;;;;;6.20;100.00;100587.88;5268868;28;20103;-76
2024/02/07 11:57:03;;;;;;;8.90;2.08;;;;;;;6.09;100.00;100582.72;5279167;27;20528;-76
2024/02/07 11:59:33;;;;;;;14.10;2.03;;;;;;;5.82;100.00;100590.56;5282958;27;20123;-78
2024/02/07 12:02:04;;;;;;;8.93;1.95;;;;;;;5.93;100.00;100596.63;5282078;27;20023;-75
2024/02/07 12:04:38;;;;;;;12.85;2.40;;;;;;;6.06;100.00;100598.13;5280715;28;20660;-77
2024/02/07 12:07:09;;;;;;;9.65;2.08;;;;;;;6.14;100.00;100592.94;5289246;27;20076;-75
2024/02/07 12:09:39;;;;;;;11.20;2.25;;;;;;;6.11;100.00;100587.88;5288568;27;20020;-78
2024/02/07 12:12:13;;;;;;;6.53;1.80;;;;;;;6.23;100.00;100587.59;5283967;27;20027;-74
2024/02/07 12:14:44;;;;;;;9.00;2.13;;;;;;;6.45;100.00;100590.88;5287184;27;20028;-74
2024/02/07 12:17:14;;;;;;;8.07;1.85;;;;;;;6.50;100.00;100593.94;5286090;27;20484;-74
2024/02/07 12:19:46;;;;;;;14.95;5.03;;;;;;;6.56;100.00;100584.50;5275878;27;20042;-74
2024/02/07 12:22:18;;;;;;;7.78;1.90;;;;;;;6.56;100.00;100590.69;5282938;27;20034;-74
2024/02/07 12:24:51;;;;;;;2.03;0.85;;;;;;;6.59;100.00;100589.56;5279783;27;20027;-74
2024/02/07 12:27:21;;;;;;;5.70;1.42;;;;;;;6.61;100.00;100592.91;5281602;28;20043;-74
2024/02/07 12:29:53;;;;;;;9.20;1.95;;;;;;;6.63;100.00;100593.63;5283296;27;20024;-74
2024/02/07 12:32:25;;;;;;;6.53;1.35;;;;;;;6.55;100.00;100580.19;5292123;27;20088;-74
2024/02/07 12:34:58;;;;;;;9.23;1.52;;;;;;;6.55;100.00;100582.84;5285907;27;20560;-74
2024/02/07 12:37:30;;;;;;;5.10;1.08;;;;;;;6.55;100.00;100585.50;5284890;28;20106;-73
2024/02/07 12:40:00;;;;;;;13.95;4.55;;;;;;;6.61;100.00;100593.75;5283412;28;20019;-74
2024/02/07 12:42:31;;;;;;;9.55;2.10;;;;;;;6.67;100.00;100592.31;5291995;27;20023;-74